Time;durP1;ratioP1;P1;durP2;ratioP2;P2;SDS_P1;SDS_P2;PMS_P1;PMS_P2;Temp;Humidity;BMP_temperature;BMP_pressure;BME280_temperature;BME280_humidity;BME280_pressure;Samples;Min_cycle;Max_cycle;Signal;HPM_P1;HPM_P2
2022/09/28 00:02:51;;;;;;;2.85;1.10;;;9.20;99.90;;;;;;8247359;28;20015;-77
2022/09/28 00:06:51;;;;;;;2.45;1.20;;;9.10;99.90;;;;;;8241664;28;20025;-79
2022/09/28 00:10:56;;;;;;;5.75;1.40;;;9.20;99.90;;;;;;8241813;28;20033;-78
2022/09/28 00:14:57;;;;;;;4.18;1.27;;;9.10;99.90;;;;;;8236042;28;20033;-79
2022/09/28 00:18:58;;;;;;;3.15;1.02;;;9.10;99.90;;;;;;8254235;28;20019;-79
2022/09/28 00:22:58;;;;;;;3.13;1.30;;;9.20;99.90;;;;;;8252691;28;20065;-79
2022/09/28 00:27:01;;;;;;;2.70;0.98;;;9.20;99.90;;;;;;8238620;28;20538;-78
2022/09/28 00:31:01;;;;;;;2.90;1.13;;;9.20;99.90;;;;;;8251547;28;20092;-81
2022/09/28 00:35:02;;;;;;;4.40;1.25;;;9.20;99.90;;;;;;8247823;28;20022;-78
2022/09/28 00:39:07;;;;;;;4.32;1.02;;;9.40;99.90;;;;;;8242598;28;20019;-79
2022/09/28 00:43:18;;;;;;;2.17;0.70;;;9.30;99.90;;;;;;8251788;28;20495;-77
2022/09/28 00:47:30;;;;;;;0.95;0.55;;;9.30;99.90;;;;;;8239001;28;20450;-78
2022/09/28 00:51:31;;;;;;;4.03;1.17;;;9.30;99.90;;;;;;8259084;28;20576;-78
2022/09/28 00:55:52;;;;;;;6.32;1.20;;;9.10;99.90;;;;;;8239062;28;20138;-79
2022/09/28 00:59:54;;;;;;;1.73;0.98;;;9.20;99.90;;;;;;8245571;28;20050;-78
2022/09/28 01:03:57;;;;;;;1.13;0.85;;;9.20;99.90;;;;;;8248808;28;20025;-79
2022/09/28 01:07:59;;;;;;;1.08;0.90;;;9.20;99.90;;;;;;8234985;28;20021;-78
2022/09/28 01:11:59;;;;;;;2.97;0.98;;;9.00;99.90;;;;;;8238982;28;20598;-78
2022/09/28 01:16:16;;;;;;;2.60;1.08;;;9.10;99.90;;;;;;8229446;28;20085;-78
2022/09/28 01:20:28;;;;;;;2.47;1.10;;;9.10;99.90;;;;;;8239368;28;20038;-77
2022/09/28 01:24:54;;;;;;;3.10;1.20;;;9.10;99.90;;;;;;8247271;28;20022;-78
2022/09/28 01:29:04;;;;;;;4.18;1.20;;;9.10;99.90;;;;;;8242757;28;20023;-77
2022/09/28 01:33:07;;;;;;;;;;;9.10;99.90;;;;;;8242053;28;20084;-78
2022/09/28 01:37:13;;;;;;;2.63;0.90;;;9.00;99.90;;;;;;8252993;28;19910;-79
2022/09/28 01:41:16;;;;;;;1.38;1.05;;;9.00;99.90;;;;;;8242625;28;20450;-78
2022/09/28 01:45:25;;;;;;;1.45;0.73;;;8.90;99.90;;;;;;8258453;28;20046;-79
2022/09/28 01:49:40;;;;;;;4.18;0.90;;;8.90;99.90;;;;;;8244879;28;20078;-77
2022/09/28 01:53:49;;;;;;;5.68;1.13;;;8.90;99.90;;;;;;8238453;28;20042;-78
2022/09/28 01:58:08;;;;;;;2.50;0.90;;;8.90;99.90;;;;;;8259954;28;20027;-78
2022/09/28 02:02:13;;;;;;;0.85;0.68;;;8.90;99.90;;;;;;8248433;28;20081;-78
2022/09/28 02:06:23;;;;;;;1.80;0.85;;;8.90;99.90;;;;;;8239954;28;20033;-79
2022/09/28 02:10:34;;;;;;;2.20;0.98;;;8.90;99.90;;;;;;8256593;28;20084;-77
2022/09/28 02:14:38;;;;;;;2.28;0.85;;;8.90;99.90;;;;;;8263600;28;20026;-78
2022/09/28 02:18:38;;;;;;;4.07;1.15;;;9.00;99.90;;;;;;8257769;28;20069;-78
2022/09/28 02:22:45;;;;;;;4.97;0.98;;;8.90;99.90;;;;;;8254768;28;20538;-78
2022/09/28 02:26:48;;;;;;;2.70;1.00;;;8.90;99.90;;;;;;8264073;28;20156;-79
2022/09/28 02:30:49;;;;;;;2.97;0.90;;;9.00;99.90;;;;;;8246685;28;20026;-78
2022/09/28 02:34:49;;;;;;;1.10;0.80;;;9.00;99.90;;;;;;8248494;28;20038;-78
2022/09/28 02:38:50;;;;;;;2.17;0.90;;;9.10;99.90;;;;;;8249935;28;20025;-78
2022/09/28 02:42:55;;;;;;;1.75;0.70;;;9.10;99.90;;;;;;8248396;28;20023;-78
2022/09/28 02:47:29;;;;;;;2.90;0.98;;;9.20;99.90;;;;;;8256184;28;20025;-78
2022/09/28 02:51:45;;;;;;;4.05;1.00;;;9.30;99.90;;;;;;8252566;28;20038;-78
2022/09/28 02:55:48;;;;;;;0.88;0.70;;;9.40;99.90;;;;;;8258676;28;20033;-78
2022/09/28 03:00:01;;;;;;;3.47;0.80;;;9.40;99.90;;;;;;8249046;28;20018;-79
2022/09/28 03:04:27;;;;;;;2.53;0.70;;;9.50;99.90;;;;;;8239581;28;20022;-78
2022/09/28 03:08:43;;;;;;;1.10;0.52;;;9.50;99.90;;;;;;8242895;28;20437;-78
2022/09/28 03:12:46;;;;;;;2.65;0.70;;;9.40;99.90;;;;;;8234895;28;20027;-80
2022/09/28 03:16:47;;;;;;;1.02;0.60;;;9.30;99.90;;;;;;8244728;28;20069;-79
2022/09/28 03:20:48;;;;;;;2.15;0.70;;;9.20;99.90;;;;;;8256390;28;20019;-78
2022/09/28 03:24:49;;;;;;;2.78;0.70;;;9.10;99.90;;;;;;8245247;28;20391;-78
2022/09/28 03:28:49;;;;;;;2.05;0.70;;;9.10;99.90;;;;;;8243523;28;20027;-78
2022/09/28 03:32:58;;;;;;;0.93;0.60;;;9.10;99.90;;;;;;8238881;28;20441;-78
2022/09/28 03:36:58;;;;;;;1.50;0.63;;;9.00;99.90;;;;;;8242242;28;20026;-78
2022/09/28 03:40:59;;;;;;;1.85;0.70;;;8.90;99.90;;;;;;8254760;28;20069;-78
2022/09/28 03:44:59;;;;;;;2.58;0.80;;;9.00;99.90;;;;;;8248423;28;20050;-78
2022/09/28 03:49:00;;;;;;;3.10;0.77;;;8.90;99.90;;;;;;8233020;28;20054;-77
2022/09/28 03:53:02;;;;;;;4.88;0.90;;;8.90;99.90;;;;;;8245999;28;20023;-78
2022/09/28 03:57:03;;;;;;;3.00;0.70;;;8.90;99.90;;;;;;8247199;28;20113;-78
2022/09/28 04:01:11;;;;;;;1.70;0.80;;;8.80;99.90;;;;;;8249992;28;20018;-78
2022/09/28 04:05:11;;;;;;;3.33;0.90;;;8.70;99.90;;;;;;8242459;28;20125;-79
2022/09/28 04:09:12;;;;;;;2.67;0.90;;;8.60;99.90;;;;;;8243798;28;20037;-78
2022/09/28 04:13:12;;;;;;;2.50;1.00;;;8.60;99.90;;;;;;8245030;28;20498;-78
2022/09/28 04:17:13;;;;;;;2.28;1.00;;;8.50;99.90;;;;;;8240213;28;20109;-78
2022/09/28 04:21:18;;;;;;;3.03;1.00;;;8.60;99.90;;;;;;8253203;28;20022;-77
2022/09/28 04:25:19;;;;;;;2.55;0.98;;;8.70;99.90;;;;;;8241019;28;20274;-78
2022/09/28 04:29:19;;;;;;;2.22;0.88;;;8.60;99.90;;;;;;8240320;28;20121;-78
2022/09/28 04:33:20;;;;;;;1.35;0.98;;;8.70;99.90;;;;;;8252515;28;20236;-79
2022/09/28 04:37:20;;;;;;;6.57;0.80;;;8.70;99.90;;;;;;8234384;28;20678;-78
2022/09/28 04:41:21;;;;;;;4.30;1.00;;;8.70;99.90;;;;;;8238198;28;20026;-78
2022/09/28 04:45:24;;;;;;;0.98;0.68;;;8.80;99.90;;;;;;8243140;28;20034;-79
2022/09/28 04:49:25;;;;;;;2.72;1.08;;;8.80;99.90;;;;;;8250339;28;20530;-78
2022/09/28 04:53:26;;;;;;;2.97;1.05;;;8.70;99.90;;;;;;8237300;28;20041;-79
2022/09/28 04:57:27;;;;;;;1.20;0.80;;;8.70;99.90;;;;;;8244948;28;20030;-77
2022/09/28 05:01:28;;;;;;;2.13;1.00;;;8.70;99.90;;;;;;8258229;28;20023;-78
2022/09/28 05:05:28;;;;;;;1.83;0.90;;;8.70;99.90;;;;;;8242110;28;20018;-78
2022/09/28 05:09:29;;;;;;;1.10;0.75;;;8.70;99.90;;;;;;8238708;28;20050;-79
2022/09/28 05:13:31;;;;;;;1.60;0.90;;;8.70;99.90;;;;;;8250442;28;20018;-78
2022/09/28 05:17:32;;;;;;;0.80;0.77;;;8.70;99.90;;;;;;8255705;28;20410;-77
2022/09/28 05:21:32;;;;;;;2.55;0.80;;;8.70;99.90;;;;;;8239033;28;20022;-78
2022/09/28 05:25:33;;;;;;;1.73;0.88;;;8.80;99.90;;;;;;8247608;28;20122;-78
2022/09/28 05:29:33;;;;;;;2.28;1.10;;;8.80;99.90;;;;;;8253672;28;20437;-78
2022/09/28 05:33:35;;;;;;;1.67;1.13;;;8.80;99.90;;;;;;8254237;28;20126;-80
2022/09/28 05:37:37;;;;;;;3.35;1.10;;;8.80;99.90;;;;;;8243891;28;20026;-78
2022/09/28 05:41:37;;;;;;;2.40;1.02;;;8.80;99.90;;;;;;8235664;28;20103;-77
2022/09/28 05:45:38;;;;;;;2.38;1.10;;;8.90;99.90;;;;;;8237923;28;20105;-78
2022/09/28 05:49:38;;;;;;;1.45;0.90;;;8.90;99.90;;;;;;8235576;28;20098;-78
2022/09/28 05:53:39;;;;;;;1.92;1.17;;;8.90;99.90;;;;;;8235915;28;20030;-78
2022/09/28 05:57:39;;;;;;;2.08;0.90;;;8.90;99.90;;;;;;8236095;28;20047;-77
2022/09/28 06:01:40;;;;;;;1.70;0.80;;;8.90;99.90;;;;;;8235359;28;20026;-78
2022/09/28 06:05:40;;;;;;;3.60;0.90;;;8.90;99.90;;;;;;8251762;28;20117;-78
2022/09/28 06:09:41;;;;;;;1.20;0.82;;;8.90;99.90;;;;;;8245563;28;20034;-78
2022/09/28 06:13:41;;;;;;;2.47;1.00;;;9.00;99.90;;;;;;8247155;28;20022;-78
2022/09/28 06:17:42;;;;;;;1.30;0.95;;;8.90;99.90;;;;;;8251829;28;20019;-78
2022/09/28 06:21:43;;;;;;;1.35;0.93;;;9.00;99.90;;;;;;8235909;28;20072;-78
2022/09/28 06:25:43;;;;;;;1.73;0.95;;;9.10;99.90;;;;;;8252585;28;20050;-78
2022/09/28 06:29:44;;;;;;;1.70;1.00;;;9.00;99.90;;;;;;8260461;28;20064;-78
2022/09/28 06:33:47;;;;;;;3.17;1.10;;;9.10;99.90;;;;;;8251671;28;20019;-78
2022/09/28 06:37:47;;;;;;;1.63;0.90;;;9.00;99.90;;;;;;8252861;28;20102;-78
2022/09/28 06:41:48;;;;;;;1.30;0.77;;;9.10;99.90;;;;;;8259695;28;20419;-78
2022/09/28 06:45:52;;;;;;;1.10;0.80;;;9.00;99.90;;;;;;8250800;28;20105;-79
2022/09/28 06:49:54;;;;;;;1.55;0.88;;;9.00;99.90;;;;;;8235930;28;20042;-78
2022/09/28 06:53:55;;;;;;;1.38;0.63;;;9.10;99.90;;;;;;8246540;28;20019;-78
2022/09/28 06:57:58;;;;;;;0.82;0.60;;;9.20;99.90;;;;;;8245665;28;20057;-78
2022/09/28 07:01:58;;;;;;;0.60;0.60;;;9.20;99.90;;;;;;8245918;28;20429;-78
2022/09/28 07:05:59;;;;;;;0.45;0.45;;;9.10;99.90;;;;;;8235175;28;20102;-78
2022/09/28 07:09:59;;;;;;;2.00;0.80;;;9.30;99.90;;;;;;8251359;28;20027;-78
2022/09/28 07:14:00;;;;;;;1.73;0.70;;;9.30;99.90;;;;;;8248594;28;20029;-77
2022/09/28 07:18:02;;;;;;;1.55;0.90;;;9.30;99.90;;;;;;8253449;28;20057;-77
2022/09/28 07:22:02;;;;;;;2.97;0.80;;;9.20;99.90;;;;;;8246114;28;20050;-78
2022/09/28 07:26:04;;;;;;;0.85;0.50;;;9.20;99.90;;;;;;8255399;28;20031;-78
2022/09/28 07:30:05;;;;;;;39.17;24.40;;;9.30;99.90;;;;;;8241426;28;20384;-78
2022/09/28 07:34:06;;;;;;;2.33;0.90;;;9.30;99.90;;;;;;8253763;28;20069;-77
2022/09/28 07:38:07;;;;;;;1.00;0.60;;;9.30;99.90;;;;;;8239489;28;20023;-78
2022/09/28 07:42:08;;;;;;;1.73;0.73;;;9.30;99.90;;;;;;8242206;28;20034;-78
2022/09/28 07:46:10;;;;;;;3.47;2.47;;;9.30;99.90;;;;;;8245940;28;20022;-78
2022/09/28 07:50:11;;;;;;;1.40;1.10;;;9.50;99.90;;;;;;8247523;28;20660;-80
2022/09/28 07:54:12;;;;;;;6.72;1.08;;;9.60;99.90;;;;;;8238499;28;20515;-80
2022/09/28 07:58:12;;;;;;;1.95;0.75;;;9.40;99.90;;;;;;8252245;28;20057;-81
2022/09/28 08:02:13;;;;;;;2.13;0.70;;;9.20;99.90;;;;;;8242172;28;20037;-80
2022/09/28 08:06:15;;;;;;;3.03;0.73;;;9.20;99.90;;;;;;8234978;28;20061;-80
2022/09/28 08:10:16;;;;;;;0.52;0.40;;;9.10;99.90;;;;;;8251372;28;20026;-81
2022/09/28 08:14:17;;;;;;;0.30;0.30;;;9.20;99.90;;;;;;8254546;28;20027;-82
2022/09/28 08:18:18;;;;;;;1.15;0.50;;;9.20;99.90;;;;;;8238981;28;20026;-83
2022/09/28 08:22:19;;;;;;;1.65;0.60;;;9.30;99.90;;;;;;8240966;28;20027;-83
2022/09/28 08:26:20;;;;;;;2.60;1.17;;;9.30;99.90;;;;;;8245299;28;20034;-83
2022/09/28 08:30:21;;;;;;;2.20;1.10;;;9.60;99.90;;;;;;8245227;28;20490;-83
2022/09/28 08:34:21;;;;;;;1.42;0.50;;;9.60;99.90;;;;;;8233806;28;20085;-83
2022/09/28 08:38:22;;;;;;;0.75;0.50;;;9.80;99.90;;;;;;8249184;28;20414;-85
2022/09/28 08:42:30;;;;;;;1.00;0.30;;;9.90;99.90;;;;;;8251968;28;20014;-83
2022/09/28 08:46:36;;;;;;;0.75;0.20;;;10.30;99.90;;;;;;8251049;28;20019;-82
2022/09/28 08:50:52;;;;;;;2.60;0.30;;;10.10;99.90;;;;;;8242795;28;20058;-84
2022/09/28 08:55:18;;;;;;;0.80;0.30;;;10.10;99.90;;;;;;8254413;28;20046;-82
2022/09/28 08:59:22;;;;;;;3.70;0.35;;;10.10;99.90;;;;;;8236926;28;20062;-82
2022/09/28 09:03:38;;;;;;;2.38;0.47;;;10.10;99.90;;;;;;8254190;28;20014;-84
2022/09/28 09:07:54;;;;;;;1.23;0.40;;;10.40;99.90;;;;;;8246721;28;20030;-82
2022/09/28 09:12:39;;;;;;;1.77;0.40;;;10.60;99.90;;;;;;8240537;28;20058;-82
2022/09/28 09:17:09;;;;;;;2.65;0.63;;;10.80;99.90;;;;;;8245582;28;20058;-81
2022/09/28 09:21:40;;;;;;;0.93;0.60;;;10.50;99.90;;;;;;8256878;28;20094;-82
2022/09/28 09:25:49;;;;;;;1.83;0.95;;;10.60;99.90;;;;;;8247846;28;20057;-81
2022/09/28 09:30:18;;;;;;;5.70;2.25;;;10.40;99.90;;;;;;8249859;28;20037;-82
2022/09/28 09:34:34;;;;;;;2.70;1.05;;;10.50;99.90;;;;;;8237002;28;20554;-81
2022/09/28 09:38:51;;;;;;;3.72;0.88;;;10.50;99.90;;;;;;8238560;28;20026;-82
2022/09/28 09:43:19;;;;;;;1.98;0.60;;;10.60;99.90;;;;;;8243217;28;20023;-81
2022/09/28 09:47:40;;;;;;;4.05;1.20;;;10.60;99.90;;;;;;8241045;28;20042;-82
2022/09/28 09:51:49;;;;;;;2.10;0.80;;;10.70;99.90;;;;;;8243189;28;20035;-83
2022/09/28 09:55:56;;;;;;;0.52;0.40;;;10.90;99.90;;;;;;8236188;28;20027;-82
2022/09/28 09:59:59;;;;;;;1.30;0.50;;;11.00;99.90;;;;;;8232921;28;20019;-83
2022/09/28 10:04:01;;;;;;;0.90;0.50;;;11.00;99.90;;;;;;8257619;28;20026;-82
2022/09/28 10:08:07;;;;;;;3.65;0.70;;;10.80;99.90;;;;;;8252616;28;20026;-82
2022/09/28 10:12:14;;;;;;;1.90;0.70;;;10.60;99.90;;;;;;8259091;28;20515;-83
2022/09/28 10:16:17;;;;;;;3.08;0.80;;;10.70;99.90;;;;;;8248832;28;20035;-83
2022/09/28 10:20:18;;;;;;;2.72;0.70;;;10.80;99.90;;;;;;8256910;28;20513;-82
2022/09/28 10:24:34;;;;;;;1.85;0.65;;;10.70;99.90;;;;;;8248998;28;20027;-82
2022/09/28 10:28:59;;;;;;;1.83;0.85;;;10.60;99.90;;;;;;8251838;28;20030;-82
2022/09/28 10:33:00;;;;;;;3.53;1.13;;;10.60;99.90;;;;;;8256722;28;20061;-83
2022/09/28 10:37:08;;;;;;;2.30;1.00;;;10.80;99.90;;;;;;8246791;28;20102;-83
2022/09/28 10:41:10;;;;;;;6.40;1.75;;;10.80;99.90;;;;;;8255650;28;20033;-81
2022/09/28 10:45:22;;;;;;;2.53;1.17;;;10.90;99.90;;;;;;8253504;28;20014;-82
2022/09/28 10:49:24;;;;;;;5.00;1.23;;;11.20;99.90;;;;;;8245652;28;20069;-82
2022/09/28 10:53:24;;;;;;;3.03;1.38;;;11.00;99.90;;;;;;8250844;28;20033;-82
2022/09/28 10:57:33;;;;;;;3.58;1.10;;;10.90;99.90;;;;;;8266782;28;20030;-84
2022/09/28 11:01:34;;;;;;;2.13;0.82;;;10.80;99.90;;;;;;8239328;28;20536;-82
2022/09/28 11:05:36;;;;;;;3.30;1.00;;;10.40;99.90;;;;;;8255022;28;20109;-82
2022/09/28 11:09:41;;;;;;;2.67;1.25;;;10.00;99.90;;;;;;8242845;28;20056;-83
2022/09/28 11:13:46;;;;;;;3.38;0.82;;;9.80;99.90;;;;;;8244298;28;20037;-83
2022/09/28 11:17:47;;;;;;;1.00;0.70;;;10.00;99.90;;;;;;8247033;28;20026;-82
2022/09/28 11:21:47;;;;;;;2.17;1.13;;;9.80;99.90;;;;;;8250056;28;20502;-81
2022/09/28 11:26:01;;;;;;;2.22;1.13;;;9.70;99.90;;;;;;8251778;28;20042;-81
2022/09/28 11:30:02;;;;;;;4.55;0.98;;;9.70;99.90;;;;;;8251414;28;20030;-82
2022/09/28 11:34:11;;;;;;;4.18;1.40;;;9.70;99.90;;;;;;8245418;28;20022;-81
2022/09/28 11:38:46;;;;;;;3.07;1.30;;;9.50;99.90;;;;;;8255343;28;20509;-82
2022/09/28 11:43:05;;;;;;;3.38;1.23;;;9.40;99.90;;;;;;8229937;28;20022;-82
2022/09/28 11:47:41;;;;;;;2.25;1.20;;;9.50;99.90;;;;;;8250204;28;20066;-83
2022/09/28 11:51:44;;;;;;;2.70;1.10;;;9.70;99.90;;;;;;8254280;28;20073;-84
2022/09/28 11:55:58;;;;;;;3.92;1.40;;;9.90;99.90;;;;;;8261708;28;20026;-83
2022/09/28 12:00:04;;;;;;;3.88;1.30;;;9.90;99.90;;;;;;8252011;28;20026;-83
2022/09/28 12:04:12;;;;;;;5.22;1.50;;;9.80;99.90;;;;;;8237076;28;20023;-84
2022/09/28 12:08:19;;;;;;;2.13;1.10;;;9.80;99.90;;;;;;8247343;28;20089;-84
2022/09/28 12:12:37;;;;;;;8.75;1.30;;;9.80;99.90;;;;;;8242230;28;20153;-84
2022/09/28 12:16:45;;;;;;;2.55;1.23;;;9.70;99.90;;;;;;8259413;28;20027;-84
2022/09/28 12:20:50;;;;;;;5.63;1.25;;;9.80;99.90;;;;;;8249136;28;20019;-84
2022/09/28 12:24:55;;;;;;;2.15;1.45;;;9.70;99.90;;;;;;8242604;28;20080;-84
2022/09/28 12:29:01;;;;;;;4.10;1.40;;;9.70;99.90;;;;;;8252439;28;20439;-84
2022/09/28 12:33:05;;;;;;;4.85;1.50;;;9.70;99.90;;;;;;8255048;28;20023;-84
2022/09/28 12:37:17;;;;;;;3.70;1.40;;;9.60;99.90;;;;;;8251479;28;20497;-84
2022/09/28 12:41:50;;;;;;;3.33;1.40;;;9.80;99.90;;;;;;8245653;28;20019;-85
2022/09/28 12:45:50;;;;;;;6.43;1.20;;;9.90;99.90;;;;;;8228476;28;20045;-84
2022/09/28 12:50:07;;;;;;;2.08;1.05;;;9.70;99.90;;;;;;8238883;28;20495;-84
2022/09/28 12:54:35;;;;;;;3.88;1.30;;;9.60;99.90;;;;;;8250404;28;20042;-85
2022/09/28 12:59:18;;;;;;;3.70;1.45;;;9.50;99.90;;;;;;8236686;28;20073;-84
2022/09/28 13:03:34;;;;;;;3.60;1.10;;;9.50;99.90;;;;;;8241521;28;20038;-84
2022/09/28 13:07:48;;;;;;;5.43;1.92;;;9.30;99.90;;;;;;8245535;28;20069;-84
2022/09/28 13:12:14;;;;;;;3.22;1.48;;;9.20;99.90;;;;;;8244126;28;20023;-84
2022/09/28 13:16:36;;;;;;;2.28;1.42;;;9.40;99.90;;;;;;8282821;23;20069;-84
2022/09/28 13:21:03;;;;;;;4.20;1.25;;;9.40;99.90;;;;;;8291546;28;20438;-84
2022/09/28 13:25:12;;;;;;;3.15;1.30;;;9.40;99.90;;;;;;8279494;28;20170;-82
2022/09/28 13:29:16;;;;;;;2.97;1.17;;;9.40;99.90;;;;;;8259892;28;20148;-84
2022/09/28 13:33:29;;;;;;;4.47;1.30;;;9.40;99.90;;;;;;8260326;28;20026;-83
2022/09/28 13:37:29;;;;;;;2.55;1.50;;;9.30;99.90;;;;;;8265338;28;20030;-83
2022/09/28 13:41:34;;;;;;;1.30;1.05;;;9.10;99.90;;;;;;8267962;28;20471;-83
2022/09/28 13:45:52;;;;;;;3.97;1.50;;;9.10;99.90;;;;;;8266358;28;20041;-83
2022/09/28 13:50:11;;;;;;;4.65;1.55;;;9.10;99.90;;;;;;8267289;28;20157;-84
2022/09/28 13:54:28;;;;;;;2.28;1.20;;;9.10;99.90;;;;;;8266550;28;20053;-84
2022/09/28 13:58:51;;;;;;;3.88;1.40;;;9.00;99.90;;;;;;8265968;28;20023;-84
2022/09/28 14:03:00;;;;;;;2.33;1.00;;;8.90;99.90;;;;;;8266565;28;20018;-84
2022/09/28 14:07:32;;;;;;;1.45;1.00;;;9.00;99.90;;;;;;8265251;28;20026;-85
2022/09/28 14:11:33;;;;;;;1.60;1.02;;;8.90;99.90;;;;;;8211171;28;20053;-84
2022/09/28 14:15:34;;;;;;;2.97;1.02;;;8.90;99.90;;;;;;8264610;28;20941;-84
2022/09/28 14:19:34;;;;;;;11.85;1.23;;;8.80;99.90;;;;;;8264634;28;20059;-83
2022/09/28 14:24:16;;;;;;;3.08;1.17;;;8.70;99.90;;;;;;8264139;28;20145;-84
2022/09/28 14:28:42;;;;;;;4.28;1.60;;;8.80;99.90;;;;;;8241719;28;20036;-83
2022/09/28 14:32:54;;;;;;;2.67;1.60;;;8.80;99.90;;;;;;8265003;28;20026;-83
2022/09/28 14:41:39;;;;;;;2.53;1.10;;;8.90;99.90;;;;;;8265309;28;20037;-84
2022/09/28 14:45:43;;;;;;;3.55;1.80;;;8.80;99.90;;;;;;8262645;28;20125;-83
2022/09/28 14:49:46;;;;;;;5.57;2.10;;;8.70;99.90;;;;;;8262408;28;20119;-82
2022/09/28 14:53:49;;;;;;;2.53;1.95;;;8.80;99.90;;;;;;8262880;28;20487;-82
2022/09/28 14:57:57;;;;;;;2.80;1.52;;;8.60;99.90;;;;;;8263514;28;20033;-81
2022/09/28 15:02:07;;;;;;;2.63;1.10;;;8.70;99.90;;;;;;8265000;28;20080;-81
2022/09/28 15:06:15;;;;;;;3.03;0.95;;;8.70;99.90;;;;;;8266332;28;20031;-81
2022/09/28 15:10:31;;;;;;;5.30;1.80;;;8.70;99.90;;;;;;8265876;28;20030;-82
2022/09/28 15:14:40;;;;;;;17.75;10.07;;;8.50;99.90;;;;;;8266360;28;20065;-81
2022/09/28 15:18:56;;;;;;;6.57;3.30;;;8.50;99.90;;;;;;8264899;28;20085;-81
2022/09/28 15:22:58;;;;;;;8.18;4.93;;;8.40;99.90;;;;;;8263285;28;20018;-81
2022/09/28 15:27:00;;;;;;;5.18;3.05;;;8.50;99.90;;;;;;8263586;28;20078;-82
2022/09/28 15:31:02;;;;;;;3.47;2.30;;;8.50;99.90;;;;;;8262679;28;20022;-80
2022/09/28 15:35:19;;;;;;;2.85;1.42;;;8.50;99.90;;;;;;8262536;28;20041;-80
2022/09/28 15:39:30;;;;;;;1.98;1.20;;;8.40;99.90;;;;;;8240709;28;20033;-80
2022/09/28 15:43:33;;;;;;;0.95;0.80;;;8.30;99.90;;;;;;8252921;28;20216;-80
2022/09/28 15:47:38;;;;;;;1.50;0.85;;;8.10;99.90;;;;;;8258513;28;20057;-80
2022/09/28 15:51:51;;;;;;;3.03;1.20;;;8.00;99.90;;;;;;8261970;28;20026;-80
2022/09/28 15:55:51;;;;;;;3.17;2.13;;;8.10;99.90;;;;;;8258927;28;20122;-79
2022/09/28 15:59:58;;;;;;;2.05;1.20;;;8.20;99.90;;;;;;8258266;28;20025;-81
2022/09/28 16:04:00;;;;;;;9.00;8.10;;;8.10;99.90;;;;;;8255043;28;20022;-80
2022/09/28 16:08:03;;;;;;;4.35;4.05;;;8.20;99.90;;;;;;8263112;28;20026;-80
2022/09/28 16:12:09;;;;;;;5.25;3.58;;;8.10;99.90;;;;;;8265817;28;20019;-81
2022/09/28 16:16:15;;;;;;;11.45;7.68;;;8.10;99.90;;;;;;8263882;28;20502;-79
2022/09/28 16:20:36;;;;;;;2.90;1.42;;;8.10;99.90;;;;;;8263687;28;20022;-79
2022/09/28 16:24:37;;;;;;;;;;;8.10;99.90;;;;;;8265175;28;20034;-79
2022/09/28 16:28:38;;;;;;;1.15;1.00;;;8.10;99.90;;;;;;8263844;28;19916;-80
2022/09/28 16:32:52;;;;;;;1.70;1.10;;;7.90;99.90;;;;;;8256679;28;20023;-79
2022/09/28 16:36:53;;;;;;;4.00;3.65;;;7.90;99.90;;;;;;8256693;28;20676;-81
2022/09/28 16:40:53;;;;;;;18.92;10.38;;;7.80;99.90;;;;;;8263692;28;20027;-80
2022/09/28 16:44:55;;;;;;;2.13;1.42;;;7.80;99.90;;;;;;8257691;28;20113;-80
2022/09/28 16:48:55;;;;;;;1.38;0.85;;;7.70;99.90;;;;;;8265385;28;20029;-79
2022/09/28 16:57:19;;;;;;;3.65;1.80;;;7.60;99.90;;;;;;8259554;28;20114;-80
2022/09/28 17:01:20;;;;;;;1.48;1.00;;;7.50;99.90;;;;;;8261955;28;20483;-79
2022/09/28 17:05:21;;;;;;;1.35;0.93;;;7.50;99.90;;;;;;8257238;28;20154;-78
2022/09/28 17:09:22;;;;;;;1.75;1.63;;;7.30;99.90;;;;;;8261906;28;20085;-79
2022/09/28 17:13:34;;;;;;;2.80;1.90;;;7.20;99.90;;;;;;8259902;28;20096;-79
2022/09/28 17:17:38;;;;;;;1.60;1.10;;;7.10;99.90;;;;;;8260138;28;20034;-79
2022/09/28 17:21:38;;;;;;;3.53;1.58;;;7.00;99.90;;;;;;8261283;28;20087;-78
2022/09/28 17:25:40;;;;;;;3.95;2.08;;;7.00;99.90;;;;;;8261867;28;20105;-80
2022/09/28 17:29:40;;;;;;;3.83;1.00;;;7.10;99.90;;;;;;8259883;28;20062;-79
2022/09/28 17:33:41;;;;;;;2.00;1.10;;;7.10;99.90;;;;;;8258721;28;20036;-78
2022/09/28 17:37:42;;;;;;;3.75;3.20;;;7.00;99.90;;;;;;8256794;28;20038;-79
2022/09/28 17:41:44;;;;;;;13.10;8.68;;;7.10;99.90;;;;;;8260779;28;20072;-77
2022/09/28 17:45:45;;;;;;;7.88;5.75;;;7.10;99.90;;;;;;8259717;28;20026;-79
2022/09/28 17:49:46;;;;;;;17.45;12.38;;;7.00;99.90;;;;;;8259352;28;20037;-79
2022/09/28 17:53:46;;;;;;;4.80;2.60;;;6.90;99.90;;;;;;8259927;28;20019;-79
2022/09/28 17:57:48;;;;;;;5.32;3.33;;;7.20;99.90;;;;;;8261508;28;20078;-79
2022/09/28 18:01:48;;;;;;;7.15;3.22;;;7.20;99.90;;;;;;8260497;28;20491;-79
2022/09/28 18:06:13;;;;;;;5.60;3.45;;;7.20;99.90;;;;;;8259470;28;20146;-80
2022/09/28 18:10:15;;;;;;;12.57;6.03;;;7.10;99.90;;;;;;8260453;28;20038;-78
2022/09/28 18:14:16;;;;;;;6.65;4.65;;;7.10;99.90;;;;;;8265893;28;20042;-79
2022/09/28 18:18:16;;;;;;;7.13;5.30;;;7.00;99.90;;;;;;8260783;28;20061;-80
2022/09/28 18:22:17;;;;;;;3.30;2.40;;;7.10;99.90;;;;;;8263388;28;20030;-78
2022/09/28 18:26:18;;;;;;;2.88;2.38;;;7.10;99.90;;;;;;8266480;28;20461;-79
2022/09/28 18:30:18;;;;;;;1.20;0.90;;;7.20;99.90;;;;;;8266539;28;20031;-77
2022/09/28 18:34:19;;;;;;;1.10;0.90;;;7.30;99.90;;;;;;8263723;28;20077;-79
2022/09/28 18:38:20;;;;;;;1.15;0.70;;;7.30;99.90;;;;;;8264167;28;20023;-78
2022/09/28 18:42:20;;;;;;;0.50;0.50;;;7.20;99.90;;;;;;8266070;28;20677;-79
2022/09/28 18:46:23;;;;;;;2.75;0.80;;;7.30;99.90;;;;;;8265897;28;20114;-79
2022/09/28 18:50:23;;;;;;;2.47;0.90;;;7.20;99.90;;;;;;8259019;28;20185;-78
2022/09/28 18:54:24;;;;;;;2.33;0.80;;;7.30;99.90;;;;;;8265964;28;20161;-78
2022/09/28 18:58:25;;;;;;;3.58;0.85;;;7.40;99.90;;;;;;8265418;28;20029;-79
2022/09/28 19:02:26;;;;;;;1.10;0.80;;;7.30;99.90;;;;;;8263865;28;20022;-77
2022/09/28 19:06:27;;;;;;;1.45;0.82;;;7.30;99.90;;;;;;8260909;28;20041;-78
2022/09/28 19:10:27;;;;;;;1.50;1.13;;;7.30;99.90;;;;;;8265527;28;20030;-79
2022/09/28 19:14:28;;;;;;;2.75;1.00;;;7.30;99.90;;;;;;8255176;28;20022;-79
2022/09/28 19:18:30;;;;;;;1.17;0.98;;;7.40;99.90;;;;;;8259941;28;20080;-78
2022/09/28 19:22:30;;;;;;;0.90;0.80;;;7.30;99.90;;;;;;8263885;28;20019;-79
2022/09/28 19:26:32;;;;;;;1.63;0.80;;;7.30;99.90;;;;;;8260125;28;20655;-79
2022/09/28 19:30:32;;;;;;;1.48;0.75;;;7.40;99.90;;;;;;8264108;28;20445;-79
2022/09/28 19:34:33;;;;;;;1.40;0.80;;;7.50;99.90;;;;;;8258316;28;20030;-78
2022/09/28 19:38:36;;;;;;;2.35;1.00;;;7.40;99.90;;;;;;8263131;28;20024;-79
2022/09/28 19:42:38;;;;;;;1.10;0.70;;;7.40;99.90;;;;;;8261773;28;20046;-80
2022/09/28 19:46:39;;;;;;;1.85;0.60;;;7.40;99.90;;;;;;8262133;28;20030;-77
2022/09/28 19:50:40;;;;;;;1.10;0.90;;;7.40;99.90;;;;;;8253245;28;20519;-77
2022/09/28 19:54:55;;;;;;;0.82;0.80;;;7.40;99.90;;;;;;8260331;28;20473;-79
2022/09/28 19:58:56;;;;;;;1.40;1.00;;;7.30;99.90;;;;;;8260981;28;20562;-78
2022/09/28 20:02:57;;;;;;;1.75;0.90;;;7.30;99.90;;;;;;8260644;28;20018;-79
2022/09/28 20:06:58;;;;;;;1.17;0.80;;;7.40;99.90;;;;;;8251146;28;20031;-77
2022/09/28 20:10:59;;;;;;;1.35;0.80;;;7.40;99.90;;;;;;8262296;28;20026;-79
2022/09/28 20:14:59;;;;;;;0.98;0.77;;;7.40;99.90;;;;;;8257701;28;20026;-78
2022/09/28 20:19:02;;;;;;;1.00;0.80;;;7.50;99.90;;;;;;8257734;28;20030;-78
2022/09/28 20:23:03;;;;;;;1.65;0.90;;;7.40;99.90;;;;;;8259928;28;20031;-78
2022/09/28 20:27:04;;;;;;;0.80;0.70;;;7.40;99.90;;;;;;8263127;28;20490;-80
2022/09/28 20:31:22;;;;;;;1.55;0.90;;;7.50;99.90;;;;;;8263062;28;20031;-78
2022/09/28 20:35:23;;;;;;;2.15;1.00;;;7.50;99.90;;;;;;8259016;28;20056;-78
2022/09/28 20:39:23;;;;;;;2.05;0.85;;;7.60;99.90;;;;;;8266288;28;20593;-79
2022/09/28 20:43:24;;;;;;;1.33;0.98;;;7.50;99.90;;;;;;8266024;28;20030;-80
2022/09/28 20:47:24;;;;;;;1.67;1.00;;;7.50;99.90;;;;;;8263857;28;20014;-78
2022/09/28 20:51:25;;;;;;;1.63;1.08;;;7.40;99.90;;;;;;8264834;28;20026;-79
2022/09/28 20:55:25;;;;;;;2.17;1.60;;;7.50;99.90;;;;;;8265673;28;20028;-79
2022/09/28 20:59:26;;;;;;;2.05;1.70;;;7.50;99.90;;;;;;8262964;28;20034;-80
2022/09/28 21:03:27;;;;;;;2.75;1.90;;;7.40;99.90;;;;;;8254965;28;20073;-79
2022/09/28 21:07:27;;;;;;;3.28;2.60;;;7.40;99.90;;;;;;8264008;28;20022;-80
2022/09/28 21:11:28;;;;;;;4.60;3.05;;;7.40;99.90;;;;;;8264639;28;20022;-79
2022/09/28 21:15:29;;;;;;;6.10;3.67;;;7.40;99.90;;;;;;8264527;28;20030;-80
2022/09/28 21:19:29;;;;;;;4.85;3.78;;;7.50;99.90;;;;;;8266287;28;20033;-80
2022/09/28 21:23:30;;;;;;;5.13;4.15;;;7.50;99.90;;;;;;8265691;28;20049;-80
2022/09/28 21:27:30;;;;;;;6.00;4.65;;;7.60;99.90;;;;;;8264181;28;20104;-80
2022/09/28 21:31:44;;;;;;;6.35;4.75;;;7.50;99.90;;;;;;8265150;28;20097;-79
2022/09/28 21:35:45;;;;;;;6.35;4.78;;;7.50;99.90;;;;;;8266614;28;20026;-79
2022/09/28 21:39:45;;;;;;;6.32;4.40;;;7.60;99.90;;;;;;8278523;28;20015;-80
2022/09/28 21:43:46;;;;;;;5.97;4.40;;;7.60;99.90;;;;;;8262484;28;20055;-80